Terminal Aerodrome Forecast
Issued by NWS Atlanta, GA

Current Version | Previous Version | Text Only | Print | Product List | Glossary On
Versions: 1 2 3 4 5 6 7 8 9 10 11 12 13 14 15 16 17 18 19 20 21 22 23 24 25 26 27 28 29 30 31 32 33 34 35 36 37 38 39
000
FTUS42 KFFC 260930 AAC
TAFATL
TAF AMD
KATL 260930Z 2610/2712 24010KT P6SM OVC008
     FM261400 28012KT P6SM BKN020
     FM261600 29012G25KT P6SM SCT050
     FM270000 32012KT P6SM SCT080
     FM270700 35005KT P6SM FEW200=

USA.gov is the U.S. government's official web portal to all federal, state and local government web resources and services.